sensor_id;sensor_type;location;lat;lon;timestamp;P1;P2;P0;N1;N25;N10
84107;NextPM;74203;50.730;1.626;2024-02-26T09:14:36;11.00;8.10;7.30;103.50;103.50;104.00
84107;NextPM;74203;50.730;1.626;2024-02-26T09:16:41;10.75;7.95;7.15;101.50;102.00;102.50
84107;NextPM;74203;50.730;1.626;2024-02-26T09:18:45;11.10;8.20;7.40;105.00;105.50;105.50
84107;NextPM;74203;50.730;1.626;2024-02-26T09:20:50;10.50;7.75;7.00;101.50;102.00;102.50
84107;NextPM;74203;50.730;1.626;2024-02-26T09:22:54;11.55;8.55;7.65;107.50;107.50;108.00
84107;NextPM;74203;50.730;1.626;2024-02-26T09:24:59;11.85;8.80;7.90;110.50;111.50;111.50
84107;NextPM;74203;50.730;1.626;2024-02-26T09:27:03;11.40;8.45;7.55;110.50;111.00;111.50
84107;NextPM;74203;50.730;1.626;2024-02-26T09:29:08;11.45;8.45;7.60;108.50;109.50;109.50
84107;NextPM;74203;50.730;1.626;2024-02-26T09:31:12;11.05;8.15;7.35;104.50;105.00;105.50
84107;NextPM;74203;50.730;1.626;2024-02-26T09:33:17;10.90;8.05;7.25;103.00;103.50;104.00
84107;NextPM;74203;50.730;1.626;2024-02-26T09:35:21;10.65;7.90;7.05;103.00;104.00;104.00
84107;NextPM;74203;50.730;1.626;2024-02-26T09:37:26;10.50;7.80;7.00;102.00;103.00;103.00
84107;NextPM;74203;50.730;1.626;2024-02-26T09:39:30;10.80;7.95;7.15;103.00;103.50;103.50
84107;NextPM;74203;50.730;1.626;2024-02-26T09:41:34;11.25;8.35;7.50;109.00;109.50;109.50
84107;NextPM;74203;50.730;1.626;2024-02-26T09:43:39;10.80;7.95;7.15;105.00;106.00;106.00
84107;NextPM;74203;50.730;1.626;2024-02-26T09:45:48;11.45;8.45;7.60;107.00;108.00;108.00
84107;NextPM;74203;50.730;1.626;2024-02-26T09:47:55;12.65;9.35;8.40;121.50;122.00;122.00
84107;NextPM;74203;50.730;1.626;2024-02-26T09:50:00;13.00;9.60;8.65;125.50;125.50;125.50
84107;NextPM;74203;50.730;1.626;2024-02-26T09:52:06;13.75;10.10;9.15;133.50;134.50;134.50
84107;NextPM;74203;50.730;1.626;2024-02-26T09:54:12;13.25;9.80;8.85;127.00;127.50;128.00
84107;NextPM;74203;50.730;1.626;2024-02-26T09:56:18;12.00;8.85;8.00;115.00;115.50;116.00
84107;NextPM;74203;50.730;1.626;2024-02-26T09:58:23;12.55;9.30;8.35;122.00;122.50;122.50
84107;NextPM;74203;50.730;1.626;2024-02-26T10:00:30;12.70;9.40;8.45;124.50;125.50;125.50
84107;NextPM;74203;50.730;1.626;2024-02-26T10:02:35;14.80;10.90;9.80;142.50;143.00;143.50
84107;NextPM;74203;50.730;1.626;2024-02-26T10:04:40;14.25;10.50;9.50;140.50;141.00;142.00
84107;NextPM;74203;50.730;1.626;2024-02-26T10:06:45;14.90;11.00;9.95;141.00;141.50;141.50
84107;NextPM;74203;50.730;1.626;2024-02-26T10:08:50;14.00;10.35;9.30;136.50;137.50;137.50
84107;NextPM;74203;50.730;1.626;2024-02-26T10:10:56;13.75;10.20;9.15;129.50;130.50;130.50
84107;NextPM;74203;50.730;1.626;2024-02-26T10:13:01;12.00;8.90;8.00;115.00;115.50;116.00
84107;NextPM;74203;50.730;1.626;2024-02-26T10:15:06;12.50;9.20;8.35;120.50;121.50;121.50
84107;NextPM;74203;50.730;1.626;2024-02-26T10:17:11;11.90;8.80;7.90;115.50;116.00;116.50
84107;NextPM;74203;50.730;1.626;2024-02-26T10:19:24;11.70;8.65;7.80;112.50;113.50;113.50
84107;NextPM;74203;50.730;1.626;2024-02-26T10:21:29;11.60;8.55;7.70;113.00;114.00;114.00
84107;NextPM;74203;50.730;1.626;2024-02-26T10:23:33;11.65;8.60;7.75;109.00;109.50;110.00
84107;NextPM;74203;50.730;1.626;2024-02-26T10:25:37;10.35;7.65;6.90;102.00;102.50;102.50
84107;NextPM;74203;50.730;1.626;2024-02-26T10:27:56;9.80;7.25;6.55;93.50;94.50;94.50
84107;NextPM;74203;50.730;1.626;2024-02-26T10:30:02;10.90;8.10;7.30;104.50;105.00;105.00
84107;NextPM;74203;50.730;1.626;2024-02-26T10:32:07;11.25;8.30;7.50;110.00;110.00;110.50
84107;NextPM;74203;50.730;1.626;2024-02-26T10:34:12;10.30;7.60;6.85;98.00;99.00;99.00
84107;NextPM;74203;50.730;1.626;2024-02-26T10:36:17;11.20;8.25;7.45;107.00;108.00;108.00
84107;NextPM;74203;50.730;1.626;2024-02-26T10:38:22;11.00;8.10;7.30;105.50;106.50;107.00
84107;NextPM;74203;50.730;1.626;2024-02-26T10:40:27;11.15;8.20;7.40;105.00;105.50;106.00
84107;NextPM;74203;50.730;1.626;2024-02-26T10:42:32;10.80;7.95;7.15;105.50;105.50;106.00
84107;NextPM;74203;50.730;1.626;2024-02-26T10:44:36;10.80;7.95;7.20;102.00;103.00;103.50
84107;NextPM;74203;50.730;1.626;2024-02-26T10:46:42;11.20;8.30;7.50;105.00;105.50;106.00
84107;NextPM;74203;50.730;1.626;2024-02-26T10:48:51;11.25;8.30;7.45;103.00;103.50;104.00
84107;NextPM;74203;50.730;1.626;2024-02-26T10:50:56;11.70;8.65;7.75;110.50;111.00;111.50
84107;NextPM;74203;50.730;1.626;2024-02-26T10:53:01;11.75;8.65;7.80;109.00;109.50;110.00
84107;NextPM;74203;50.730;1.626;2024-02-26T10:55:08;12.30;9.15;8.20;112.50;112.50;113.00
84107;NextPM;74203;50.730;1.626;2024-02-26T10:57:17;11.85;8.75;7.90;112.00;112.00;112.50
84107;NextPM;74203;50.730;1.626;2024-02-26T10:59:23;12.25;9.05;8.20;115.50;116.00;116.00
84107;NextPM;74203;50.730;1.626;2024-02-26T11:01:27;12.15;9.00;8.10;118.00;119.00;119.00
84107;NextPM;74203;50.730;1.626;2024-02-26T11:03:33;10.60;7.85;7.05;101.00;101.50;102.00
84107;NextPM;74203;50.730;1.626;2024-02-26T11:05:38;11.30;8.35;7.50;109.00;109.50;110.00
84107;NextPM;74203;50.730;1.626;2024-02-26T11:07:43;12.25;9.00;8.15;115.00;116.00;116.50
84107;NextPM;74203;50.730;1.626;2024-02-26T11:09:48;11.85;8.70;7.85;111.00;111.50;111.50
84107;NextPM;74203;50.730;1.626;2024-02-26T11:11:53;13.40;9.90;8.90;128.00;129.50;129.50
84107;NextPM;74203;50.730;1.626;2024-02-26T11:13:58;13.35;9.85;8.90;124.00;124.50;124.50
84107;NextPM;74203;50.730;1.626;2024-02-26T11:16:05;13.15;9.75;8.75;124.50;125.50;126.00
84107;NextPM;74203;50.730;1.626;2024-02-26T11:18:11;13.15;9.65;8.70;125.50;126.50;127.00
84107;NextPM;74203;50.730;1.626;2024-02-26T11:20:17;11.65;8.60;7.75;110.00;110.50;111.00
84107;NextPM;74203;50.730;1.626;2024-02-26T11:22:23;13.25;9.80;8.85;129.00;129.00;130.00
84107;NextPM;74203;50.730;1.626;2024-02-26T11:24:28;13.55;10.00;9.00;125.00;126.00;126.00
84107;NextPM;74203;50.730;1.626;2024-02-26T11:26:33;14.90;11.00;9.90;140.00;141.00;141.50
84107;NextPM;74203;50.730;1.626;2024-02-26T11:28:38;14.45;10.70;9.65;138.00;139.00;139.00
84107;NextPM;74203;50.730;1.626;2024-02-26T11:30:44;15.05;11.10;10.00;141.50;142.50;143.00
84107;NextPM;74203;50.730;1.626;2024-02-26T11:32:51;13.00;9.60;8.65;125.00;125.50;126.00
84107;NextPM;74203;50.730;1.626;2024-02-26T11:34:56;11.55;8.50;7.65;108.00;108.50;109.00
84107;NextPM;74203;50.730;1.626;2024-02-26T11:37:10;11.55;8.55;7.70;110.50;110.50;111.50
84107;NextPM;74203;50.730;1.626;2024-02-26T11:39:15;11.95;8.90;7.95;112.50;113.50;113.50
84107;NextPM;74203;50.730;1.626;2024-02-26T11:41:20;11.35;8.45;7.55;103.50;104.50;104.50
84107;NextPM;74203;50.730;1.626;2024-02-26T11:43:25;10.70;7.90;7.10;100.00;101.00;101.50
84107;NextPM;74203;50.730;1.626;2024-02-26T11:45:50;10.55;7.80;7.00;98.50;99.00;99.50
84107;NextPM;74203;50.730;1.626;2024-02-26T11:47:57;10.15;7.50;6.75;93.00;94.00;94.00
84107;NextPM;74203;50.730;1.626;2024-02-26T11:50:33;10.60;7.85;7.05;98.50;98.50;99.50
84107;NextPM;74203;50.730;1.626;2024-02-26T11:52:38;10.20;7.55;6.75;98.50;99.50;100.50
84107;NextPM;74203;50.730;1.626;2024-02-26T11:54:47;10.25;7.60;6.80;96.00;97.00;97.00
84107;NextPM;74203;50.730;1.626;2024-02-26T11:56:52;9.10;6.75;6.05;83.00;83.50;84.00
84107;NextPM;74203;50.730;1.626;2024-02-26T11:58:59;8.30;6.10;5.50;77.50;78.00;78.00
84107;NextPM;74203;50.730;1.626;2024-02-26T12:01:04;9.00;6.60;6.00;82.00;82.50;82.50
84107;NextPM;74203;50.730;1.626;2024-02-26T12:03:09;9.40;6.95;6.25;88.00;88.50;89.00
84107;NextPM;74203;50.730;1.626;2024-02-26T12:05:14;9.95;7.35;6.60;91.00;92.00;92.00
84107;NextPM;74203;50.730;1.626;2024-02-26T12:07:19;9.95;7.35;6.60;94.00;95.00;95.00
84107;NextPM;74203;50.730;1.626;2024-02-26T12:09:32;9.60;7.10;6.40;90.00;91.00;91.00
84107;NextPM;74203;50.730;1.626;2024-02-26T12:11:39;9.90;7.30;6.55;95.00;95.00;96.00
84107;NextPM;74203;50.730;1.626;2024-02-26T12:13:45;10.55;7.80;7.00;96.50;97.00;97.50
84107;NextPM;74203;50.730;1.626;2024-02-26T12:15:57;10.35;7.65;6.85;99.00;99.50;100.00
84107;NextPM;74203;50.730;1.626;2024-02-26T12:18:03;11.40;8.45;7.60;103.50;104.50;104.50
84107;NextPM;74203;50.730;1.626;2024-02-26T12:20:12;9.75;7.20;6.50;92.00;93.00;93.00
84107;NextPM;74203;50.730;1.626;2024-02-26T12:22:17;10.55;7.80;7.05;100.00;101.00;101.50
84107;NextPM;74203;50.730;1.626;2024-02-26T12:24:22;10.75;7.95;7.10;101.50;101.50;102.50
84107;NextPM;74203;50.730;1.626;2024-02-26T12:26:26;12.55;9.30;8.35;114.50;115.00;116.00
84107;NextPM;74203;50.730;1.626;2024-02-26T12:28:31;9.70;7.15;6.45;90.50;91.00;92.00
84107;NextPM;74203;50.730;1.626;2024-02-26T12:30:35;11.85;8.80;7.90;109.00;109.50;109.50
84107;NextPM;74203;50.730;1.626;2024-02-26T12:32:40;11.80;8.70;7.80;105.50;107.00;107.00
84107;NextPM;74203;50.730;1.626;2024-02-26T12:34:44;12.50;9.25;8.35;115.50;116.50;116.50
84107;NextPM;74203;50.730;1.626;2024-02-26T12:36:49;12.90;9.55;8.55;119.00;120.00;120.00
84107;NextPM;74203;50.730;1.626;2024-02-26T12:38:53;12.35;9.10;8.20;112.50;112.50;113.50
84107;NextPM;74203;50.730;1.626;2024-02-26T12:40:58;12.55;9.25;8.35;113.00;114.00;114.00
84107;NextPM;74203;50.730;1.626;2024-02-26T12:43:03;12.00;8.90;7.95;110.50;111.50;111.50
84107;NextPM;74203;50.730;1.626;2024-02-26T12:45:09;11.50;8.50;7.65;108.50;109.00;109.50
84107;NextPM;74203;50.730;1.626;2024-02-26T12:47:14;12.40;9.15;8.20;115.50;116.50;117.00
84107;NextPM;74203;50.730;1.626;2024-02-26T12:49:19;11.05;8.15;7.35;99.00;99.50;100.50
84107;NextPM;74203;50.730;1.626;2024-02-26T12:51:23;11.25;8.30;7.50;104.50;105.00;105.50
84107;NextPM;74203;50.730;1.626;2024-02-26T12:53:29;11.25;8.30;7.45;101.50;102.50;102.50
84107;NextPM;74203;50.730;1.626;2024-02-26T12:55:33;11.25;8.30;7.45;103.50;104.50;104.50
84107;NextPM;74203;50.730;1.626;2024-02-26T12:57:38;11.85;8.75;7.90;107.50;108.00;108.50
84107;NextPM;74203;50.730;1.626;2024-02-26T12:59:44;11.95;8.90;7.95;112.50;114.00;114.00
84107;NextPM;74203;50.730;1.626;2024-02-26T13:01:49;11.70;8.60;7.75;108.50;109.50;109.50
84107;NextPM;74203;50.730;1.626;2024-02-26T13:03:54;12.05;8.90;8.00;111.50;112.50;112.50
84107;NextPM;74203;50.730;1.626;2024-02-26T13:05:58;12.70;9.35;8.45;119.00;120.00;120.50
84107;NextPM;74203;50.730;1.626;2024-02-26T13:08:04;13.30;9.80;8.80;124.50;125.50;126.50
84107;NextPM;74203;50.730;1.626;2024-02-26T13:10:09;13.20;9.75;8.75;122.50;123.50;124.00
84107;NextPM;74203;50.730;1.626;2024-02-26T13:12:14;13.95;10.30;9.30;126.50;127.50;128.50
84107;NextPM;74203;50.730;1.626;2024-02-26T13:14:21;13.45;9.90;8.95;122.50;123.00;123.50
84107;NextPM;74203;50.730;1.626;2024-02-26T13:16:25;12.55;9.25;8.35;115.00;116.00;116.50
84107;NextPM;74203;50.730;1.626;2024-02-26T13:18:30;12.95;9.55;8.60;117.50;118.50;119.00
84107;NextPM;74203;50.730;1.626;2024-02-26T13:20:34;13.40;9.85;8.90;119.50;120.50;121.00
84107;NextPM;74203;50.730;1.626;2024-02-26T13:22:39;13.50;9.95;8.95;126.50;127.00;128.00
84107;NextPM;74203;50.730;1.626;2024-02-26T13:24:43;13.00;9.60;8.65;117.50;118.50;119.00
84107;NextPM;74203;50.730;1.626;2024-02-26T13:26:48;12.70;9.35;8.45;120.00;121.00;121.00
84107;NextPM;74203;50.730;1.626;2024-02-26T13:29:01;13.95;10.30;9.25;125.00;126.00;126.50
84107;NextPM;74203;50.730;1.626;2024-02-26T13:31:06;13.95;10.30;9.30;131.00;132.50;132.50
84107;NextPM;74203;50.730;1.626;2024-02-26T13:33:12;13.05;9.65;8.70;120.50;121.50;121.50
84107;NextPM;74203;50.730;1.626;2024-02-26T13:35:17;14.25;10.55;9.50;134.50;135.50;135.50
84107;NextPM;74203;50.730;1.626;2024-02-26T13:37:21;14.10;10.40;9.35;130.00;131.50;131.50
84107;NextPM;74203;50.730;1.626;2024-02-26T13:39:27;13.90;10.25;9.25;129.00;129.00;130.00
84107;NextPM;74203;50.730;1.626;2024-02-26T13:41:32;13.00;9.60;8.60;121.00;122.00;123.00
84107;NextPM;74203;50.730;1.626;2024-02-26T13:43:36;12.75;9.40;8.50;119.00;119.50;120.00
84107;NextPM;74203;50.730;1.626;2024-02-26T13:45:41;12.95;9.60;8.60;117.50;118.50;119.00
84107;NextPM;74203;50.730;1.626;2024-02-26T13:47:45;13.40;9.90;8.90;120.50;121.00;121.50
84107;NextPM;74203;50.730;1.626;2024-02-26T13:49:50;12.90;9.55;8.60;116.00;117.00;117.00
84107;NextPM;74203;50.730;1.626;2024-02-26T13:51:54;12.90;9.50;8.60;119.50;120.50;121.00
84107;NextPM;74203;50.730;1.626;2024-02-26T13:53:59;13.95;10.30;9.30;130.00;131.50;131.50
84107;NextPM;74203;50.730;1.626;2024-02-26T13:56:03;15.20;11.20;10.10;139.00;140.00;140.50
84107;NextPM;74203;50.730;1.626;2024-02-26T13:58:08;13.85;10.20;9.20;127.50;128.50;129.00
84107;NextPM;74203;50.730;1.626;2024-02-26T14:00:13;13.60;10.05;9.05;128.00;129.00;129.50
84107;NextPM;74203;50.730;1.626;2024-02-26T14:02:18;14.75;10.90;9.85;135.00;136.00;136.50
84107;NextPM;74203;50.730;1.626;2024-02-26T14:04:22;13.35;9.85;8.85;121.00;122.00;123.00
84107;NextPM;74203;50.730;1.626;2024-02-26T14:06:27;14.55;10.75;9.65;131.50;132.50;132.50
84107;NextPM;74203;50.730;1.626;2024-02-26T14:08:32;13.85;10.25;9.25;128.00;128.50;129.00
84107;NextPM;74203;50.730;1.626;2024-02-26T14:10:36;12.20;9.05;8.15;113.50;114.50;114.50
84107;NextPM;74203;50.730;1.626;2024-02-26T14:12:41;11.55;8.55;7.70;109.50;110.00;110.50
84107;NextPM;74203;50.730;1.626;2024-02-26T14:14:45;12.25;9.10;8.15;113.00;114.00;114.50
84107;NextPM;74203;50.730;1.626;2024-02-26T14:16:50;12.50;9.25;8.30;114.50;115.00;115.50
84107;NextPM;74203;50.730;1.626;2024-02-26T14:18:54;13.45;9.95;8.95;127.00;128.00;128.50
84107;NextPM;74203;50.730;1.626;2024-02-26T14:20:59;12.90;9.50;8.60;119.50;120.00;121.00
84107;NextPM;74203;50.730;1.626;2024-02-26T14:23:03;12.85;9.50;8.55;119.00;119.50;120.50
84107;NextPM;74203;50.730;1.626;2024-02-26T14:25:08;12.95;9.60;8.60;118.00;119.00;119.00
84107;NextPM;74203;50.730;1.626;2024-02-26T14:27:13;13.35;9.85;8.90;122.00;123.00;123.50
84107;NextPM;74203;50.730;1.626;2024-02-26T14:29:18;13.35;9.85;8.90;122.00;123.00;123.00
84107;NextPM;74203;50.730;1.626;2024-02-26T14:31:22;12.85;9.50;8.55;113.00;114.00;114.50
84107;NextPM;74203;50.730;1.626;2024-02-26T14:33:26;12.55;9.25;8.30;119.00;120.00;120.00
84107;NextPM;74203;50.730;1.626;2024-02-26T14:35:31;13.50;9.95;9.00;122.50;123.00;123.50
84107;NextPM;74203;50.730;1.626;2024-02-26T14:37:35;13.50;9.95;8.95;126.00;127.00;128.00
84107;NextPM;74203;50.730;1.626;2024-02-26T14:39:40;13.65;10.10;9.05;124.50;125.50;126.50
84107;NextPM;74203;50.730;1.626;2024-02-26T14:41:44;13.20;9.75;8.75;120.50;121.50;122.00
84107;NextPM;74203;50.730;1.626;2024-02-26T14:43:49;13.30;9.85;8.85;126.00;126.50;127.50
84107;NextPM;74203;50.730;1.626;2024-02-26T14:45:53;12.90;9.50;8.55;121.50;122.50;122.50
84107;NextPM;74203;50.730;1.626;2024-02-26T14:47:57;13.30;9.80;8.85;124.50;125.50;125.50
84107;NextPM;74203;50.730;1.626;2024-02-26T14:50:02;13.50;10.00;9.00;127.00;128.00;128.50
84107;NextPM;74203;50.730;1.626;2024-02-26T14:52:07;12.90;9.55;8.60;119.50;120.50;121.00
84107;NextPM;74203;50.730;1.626;2024-02-26T14:54:12;12.90;9.55;8.60;121.50;122.00;122.00
84107;NextPM;74203;50.730;1.626;2024-02-26T14:56:17;12.85;9.50;8.55;119.50;120.00;121.00
84107;NextPM;74203;50.730;1.626;2024-02-26T14:58:21;12.45;9.20;8.30;118.00;119.00;119.00
84107;NextPM;74203;50.730;1.626;2024-02-26T15:00:25;13.35;9.85;8.90;119.50;120.50;120.50
84107;NextPM;74203;50.730;1.626;2024-02-26T15:02:30;12.85;9.50;8.55;120.50;121.50;122.00
84107;NextPM;74203;50.730;1.626;2024-02-26T15:04:34;13.20;9.75;8.80;120.50;122.00;122.00
84107;NextPM;74203;50.730;1.626;2024-02-26T15:06:39;13.50;9.95;8.95;124.00;125.00;125.00
84107;NextPM;74203;50.730;1.626;2024-02-26T15:08:44;12.60;9.35;8.40;118.50;119.00;120.00
84107;NextPM;74203;50.730;1.626;2024-02-26T15:10:48;12.45;9.25;8.30;116.50;117.00;117.50
84107;NextPM;74203;50.730;1.626;2024-02-26T15:12:52;13.10;9.65;8.70;123.00;123.00;124.00
84107;NextPM;74203;50.730;1.626;2024-02-26T15:14:57;13.00;9.60;8.60;119.00;120.00;120.50
84107;NextPM;74203;50.730;1.626;2024-02-26T15:17:01;13.85;10.25;9.20;124.00;124.00;125.00
84107;NextPM;74203;50.730;1.626;2024-02-26T15:19:06;13.05;9.60;8.70;118.50;119.50;120.50
84107;NextPM;74203;50.730;1.626;2024-02-26T15:21:10;13.45;9.95;8.95;121.50;122.50;123.00
84107;NextPM;74203;50.730;1.626;2024-02-26T15:23:15;14.20;10.50;9.45;134.50;135.50;135.50
84107;NextPM;74203;50.730;1.626;2024-02-26T15:25:19;13.45;9.95;8.95;125.50;126.50;127.00
84107;NextPM;74203;50.730;1.626;2024-02-26T15:27:24;13.65;10.10;9.05;128.00;129.00;129.50
84107;NextPM;74203;50.730;1.626;2024-02-26T15:29:28;13.60;10.10;9.05;121.50;122.50;122.50
84107;NextPM;74203;50.730;1.626;2024-02-26T15:31:33;13.25;9.85;8.85;123.00;123.50;123.50
84107;NextPM;74203;50.730;1.626;2024-02-26T15:33:37;14.95;11.05;9.95;141.50;142.50;143.00
84107;NextPM;74203;50.730;1.626;2024-02-26T15:35:42;14.75;10.90;9.80;133.00;133.50;134.00
84107;NextPM;74203;50.730;1.626;2024-02-26T15:37:46;14.05;10.35;9.35;132.50;133.50;134.50
84107;NextPM;74203;50.730;1.626;2024-02-26T15:39:51;14.30;10.55;9.50;128.00;129.00;129.50
84107;NextPM;74203;50.730;1.626;2024-02-26T15:41:55;14.10;10.40;9.40;130.50;131.50;132.00
84107;NextPM;74203;50.730;1.626;2024-02-26T15:44:00;14.30;10.55;9.50;131.50;133.00;133.50
84107;NextPM;74203;50.730;1.626;2024-02-26T15:46:05;13.95;10.30;9.25;127.50;128.50;128.50
84107;NextPM;74203;50.730;1.626;2024-02-26T15:48:10;14.25;10.55;9.50;132.50;133.00;133.50
84107;NextPM;74203;50.730;1.626;2024-02-26T15:50:14;14.20;10.50;9.45;129.50;130.50;130.50
84107;NextPM;74203;50.730;1.626;2024-02-26T15:52:19;14.60;10.80;9.70;131.00;132.00;132.50
84107;NextPM;74203;50.730;1.626;2024-02-26T15:54:25;15.35;11.35;10.20;139.00;140.50;140.50
84107;NextPM;74203;50.730;1.626;2024-02-26T15:56:29;14.15;10.45;9.40;130.50;131.00;132.00
84107;NextPM;74203;50.730;1.626;2024-02-26T15:58:34;14.35;10.55;9.55;135.50;136.50;137.00
84107;NextPM;74203;50.730;1.626;2024-02-26T16:00:42;14.40;10.70;9.60;132.50;133.50;134.50
84107;NextPM;74203;50.730;1.626;2024-02-26T16:02:48;14.50;10.75;9.65;134.50;135.50;135.50
84107;NextPM;74203;50.730;1.626;2024-02-26T16:04:53;14.00;10.35;9.35;132.00;133.00;133.50
84107;NextPM;74203;50.730;1.626;2024-02-26T16:06:58;12.60;9.30;8.40;120.00;121.00;121.50
84107;NextPM;74203;50.730;1.626;2024-02-26T16:09:04;13.45;9.95;8.95;129.00;130.00;131.00
84107;NextPM;74203;50.730;1.626;2024-02-26T16:11:09;14.50;10.75;9.65;133.50;134.50;134.50
84107;NextPM;74203;50.730;1.626;2024-02-26T16:13:13;14.55;10.80;9.70;133.50;134.00;135.00
84107;NextPM;74203;50.730;1.626;2024-02-26T16:15:18;13.95;10.30;9.30;128.50;129.50;130.00
84107;NextPM;74203;50.730;1.626;2024-02-26T16:17:24;13.00;9.65;8.65;118.50;119.50;119.50
84107;NextPM;74203;50.730;1.626;2024-02-26T16:19:30;13.25;9.80;8.85;124.00;124.50;125.50
84107;NextPM;74203;50.730;1.626;2024-02-26T16:21:35;12.80;9.50;8.55;123.00;124.00;124.50
84107;NextPM;74203;50.730;1.626;2024-02-26T16:23:39;14.05;10.40;9.35;131.50;132.00;132.50
84107;NextPM;74203;50.730;1.626;2024-02-26T16:25:44;14.35;10.65;9.55;129.50;130.50;131.00
84107;NextPM;74203;50.730;1.626;2024-02-26T16:27:48;13.75;10.15;9.10;130.00;130.50;131.00
84107;NextPM;74203;50.730;1.626;2024-02-26T16:29:53;13.15;9.75;8.75;122.50;124.00;124.00
84107;NextPM;74203;50.730;1.626;2024-02-26T16:31:57;13.80;10.25;9.20;129.00;130.00;130.50
84107;NextPM;74203;50.730;1.626;2024-02-26T16:34:01;13.55;10.00;9.00;127.00;128.00;128.00
84107;NextPM;74203;50.730;1.626;2024-02-26T16:36:06;15.80;11.75;10.55;146.50;147.50;147.50
84107;NextPM;74203;50.730;1.626;2024-02-26T16:38:13;16.05;11.85;10.65;148.50;149.00;149.50
84107;NextPM;74203;50.730;1.626;2024-02-26T16:40:17;16.05;11.90;10.70;148.50;149.50;150.00
84107;NextPM;74203;50.730;1.626;2024-02-26T16:42:22;16.35;12.10;10.90;157.00;158.00;158.50
84107;NextPM;74203;50.730;1.626;2024-02-26T16:44:26;15.20;11.25;10.15;139.50;140.50;141.00
84107;NextPM;74203;50.730;1.626;2024-02-26T16:46:31;14.95;11.05;9.95;138.50;139.50;140.00
84107;NextPM;74203;50.730;1.626;2024-02-26T16:48:35;16.70;12.35;11.10;154.50;155.00;155.50
84107;NextPM;74203;50.730;1.626;2024-02-26T16:50:40;16.55;12.25;11.00;151.50;152.50;153.00
84107;NextPM;74203;50.730;1.626;2024-02-26T16:52:44;15.45;11.40;10.30;142.50;143.50;144.00
84107;NextPM;74203;50.730;1.626;2024-02-26T16:54:49;14.80;10.95;9.85;139.00;140.00;140.00
84107;NextPM;74203;50.730;1.626;2024-02-26T16:56:53;14.45;10.70;9.60;139.00;140.00;140.00
84107;NextPM;74203;50.730;1.626;2024-02-26T16:58:58;14.75;10.85;9.80;137.00;137.50;138.00
84107;NextPM;74203;50.730;1.626;2024-02-26T17:01:02;13.60;10.05;9.05;128.00;129.00;129.00
84107;NextPM;74203;50.730;1.626;2024-02-26T17:03:07;14.70;10.85;9.80;135.00;135.50;136.00
84107;NextPM;74203;50.730;1.626;2024-02-26T17:05:11;16.80;12.45;11.15;158.00;159.00;159.50
84107;NextPM;74203;50.730;1.626;2024-02-26T17:07:16;12.35;9.10;8.20;117.50;118.50;118.50
84107;NextPM;74203;50.730;1.626;2024-02-26T17:09:20;13.05;9.65;8.70;121.00;121.50;122.50
84107;NextPM;74203;50.730;1.626;2024-02-26T17:11:25;12.65;9.35;8.40;114.00;115.00;115.50
84107;NextPM;74203;50.730;1.626;2024-02-26T17:13:29;13.55;9.95;9.00;127.00;128.00;129.00
84107;NextPM;74203;50.730;1.626;2024-02-26T17:15:34;12.90;9.55;8.60;120.50;121.50;122.00
84107;NextPM;74203;50.730;1.626;2024-02-26T17:17:38;13.45;9.90;8.90;127.00;127.50;128.50
84107;NextPM;74203;50.730;1.626;2024-02-26T17:19:43;12.15;9.00;8.10;117.00;118.00;119.00
84107;NextPM;74203;50.730;1.626;2024-02-26T17:21:48;13.35;9.90;8.85;121.50;122.50;123.50
84107;NextPM;74203;50.730;1.626;2024-02-26T17:23:53;12.80;9.45;8.50;120.50;121.00;122.00
84107;NextPM;74203;50.730;1.626;2024-02-26T17:25:57;13.35;9.85;8.90;122.50;123.00;123.50
84107;NextPM;74203;50.730;1.626;2024-02-26T17:28:02;13.35;9.85;8.85;121.00;122.00;122.50
84107;NextPM;74203;50.730;1.626;2024-02-26T17:30:07;12.90;9.55;8.60;120.50;121.50;121.50
84107;NextPM;74203;50.730;1.626;2024-02-26T17:32:12;13.45;9.95;8.95;126.00;127.00;127.50
84107;NextPM;74203;50.730;1.626;2024-02-26T17:34:16;12.50;9.20;8.30;118.50;119.50;120.00
84107;NextPM;74203;50.730;1.626;2024-02-26T17:36:21;14.30;10.55;9.50;129.50;130.50;130.50
84107;NextPM;74203;50.730;1.626;2024-02-26T17:38:25;13.15;9.70;8.75;127.50;128.00;129.00
84107;NextPM;74203;50.730;1.626;2024-02-26T17:40:30;14.10;10.50;9.40;130.50;131.00;131.50
84107;NextPM;74203;50.730;1.626;2024-02-26T17:42:34;13.40;9.90;8.90;125.50;126.50;126.50
84107;NextPM;74203;50.730;1.626;2024-02-26T17:44:39;13.85;10.20;9.20;126.50;127.50;127.50
84107;NextPM;74203;50.730;1.626;2024-02-26T17:46:44;12.30;9.10;8.20;113.00;114.00;114.50
84107;NextPM;74203;50.730;1.626;2024-02-26T17:48:48;12.20;9.00;8.10;115.50;116.50;116.50
84107;NextPM;74203;50.730;1.626;2024-02-26T17:50:52;12.25;9.00;8.15;114.00;115.00;115.00
84107;NextPM;74203;50.730;1.626;2024-02-26T17:52:57;12.15;8.95;8.05;111.00;111.50;112.00
84107;NextPM;74203;50.730;1.626;2024-02-26T17:55:01;12.00;8.85;7.95;111.00;112.00;112.00
84107;NextPM;74203;50.730;1.626;2024-02-26T17:57:06;12.00;8.90;8.00;112.00;113.00;114.00
84107;NextPM;74203;50.730;1.626;2024-02-26T17:59:10;13.05;9.65;8.70;119.00;120.00;120.00
84107;NextPM;74203;50.730;1.626;2024-02-26T18:01:15;12.55;9.25;8.35;121.00;121.50;122.00
84107;NextPM;74203;50.730;1.626;2024-02-26T18:03:19;13.30;9.80;8.85;127.00;127.50;128.00
84107;NextPM;74203;50.730;1.626;2024-02-26T18:05:24;13.00;9.60;8.65;122.00;123.00;124.00
84107;NextPM;74203;50.730;1.626;2024-02-26T18:07:28;12.15;9.00;8.10;111.00;111.50;112.00
84107;NextPM;74203;50.730;1.626;2024-02-26T18:09:33;11.60;8.55;7.75;110.00;111.00;111.50
84107;NextPM;74203;50.730;1.626;2024-02-26T18:11:37;12.40;9.20;8.30;116.50;117.00;117.50
84107;NextPM;74203;50.730;1.626;2024-02-26T18:13:42;12.10;8.95;8.05;111.00;111.50;112.00
84107;NextPM;74203;50.730;1.626;2024-02-26T18:15:47;13.10;9.65;8.70;119.00;120.50;120.50
84107;NextPM;74203;50.730;1.626;2024-02-26T18:17:52;15.80;11.70;10.50;147.00;148.00;148.00
84107;NextPM;74203;50.730;1.626;2024-02-26T18:19:56;14.85;10.95;9.85;136.00;137.00;137.00
84107;NextPM;74203;50.730;1.626;2024-02-26T18:22:00;14.10;10.45;9.35;134.00;135.00;135.00
84107;NextPM;74203;50.730;1.626;2024-02-26T18:24:06;13.50;10.00;8.95;125.00;125.50;126.50
84107;NextPM;74203;50.730;1.626;2024-02-26T18:26:10;13.60;10.05;9.05;128.00;129.50;129.50
84107;NextPM;74203;50.730;1.626;2024-02-26T18:28:15;13.50;9.95;9.00;122.50;123.50;124.00
84107;NextPM;74203;50.730;1.626;2024-02-26T18:30:20;13.30;9.85;8.85;125.00;125.50;126.00
84107;NextPM;74203;50.730;1.626;2024-02-26T18:32:25;12.70;9.40;8.50;115.50;116.50;117.50